sensor_id;sensor_type;location;lat;lon;timestamp;P1;durP1;ratioP1;P2;durP2;ratioP2
77099;SDS011;66602;48.922;2.414;2023-03-01T00:01:46;6.78;;;6.18;;
77099;SDS011;66602;48.922;2.414;2023-03-01T00:04:12;6.10;;;5.70;;
77099;SDS011;66602;48.922;2.414;2023-03-01T00:06:37;6.65;;;6.20;;
77099;SDS011;66602;48.922;2.414;2023-03-01T00:09:03;6.97;;;6.15;;
77099;SDS011;66602;48.922;2.414;2023-03-01T00:11:29;6.13;;;5.63;;
77099;SDS011;66602;48.922;2.414;2023-03-01T00:13:57;6.88;;;6.22;;
77099;SDS011;66602;48.922;2.414;2023-03-01T00:16:25;6.13;;;5.78;;
77099;SDS011;66602;48.922;2.414;2023-03-01T00:18:53;7.18;;;6.47;;
77099;SDS011;66602;48.922;2.414;2023-03-01T00:21:20;6.10;;;5.55;;
77099;SDS011;66602;48.922;2.414;2023-03-01T00:23:47;6.90;;;6.30;;
77099;SDS011;66602;48.922;2.414;2023-03-01T00:26:14;6.93;;;5.97;;
77099;SDS011;66602;48.922;2.414;2023-03-01T00:28:40;8.23;;;6.47;;
77099;SDS011;66602;48.922;2.414;2023-03-01T00:31:15;6.60;;;6.10;;
77099;SDS011;66602;48.922;2.414;2023-03-01T00:33:43;7.07;;;6.57;;
77099;SDS011;66602;48.922;2.414;2023-03-01T00:36:10;7.55;;;6.95;;
77099;SDS011;66602;48.922;2.414;2023-03-01T00:38:37;7.00;;;6.38;;
77099;SDS011;66602;48.922;2.414;2023-03-01T00:41:10;7.15;;;6.50;;
77099;SDS011;66602;48.922;2.414;2023-03-01T00:43:37;6.47;;;6.07;;
77099;SDS011;66602;48.922;2.414;2023-03-01T00:46:08;6.72;;;6.22;;
77099;SDS011;66602;48.922;2.414;2023-03-01T00:48:40;6.65;;;6.15;;
77099;SDS011;66602;48.922;2.414;2023-03-01T00:51:13;6.95;;;6.25;;
77099;SDS011;66602;48.922;2.414;2023-03-01T00:53:43;7.03;;;6.63;;
77099;SDS011;66602;48.922;2.414;2023-03-01T00:56:11;7.47;;;6.78;;
77099;SDS011;66602;48.922;2.414;2023-03-01T00:58:38;7.82;;;7.13;;
77099;SDS011;66602;48.922;2.414;2023-03-01T01:01:09;7.00;;;6.40;;
77099;SDS011;66602;48.922;2.414;2023-03-01T01:03:42;6.78;;;6.32;;
77099;SDS011;66602;48.922;2.414;2023-03-01T01:06:16;8.70;;;6.30;;
77099;SDS011;66602;48.922;2.414;2023-03-01T01:08:46;7.38;;;6.85;;
77099;SDS011;66602;48.922;2.414;2023-03-01T01:11:12;6.60;;;6.15;;
77099;SDS011;66602;48.922;2.414;2023-03-01T01:13:38;7.40;;;6.63;;
77099;SDS011;66602;48.922;2.414;2023-03-01T01:16:04;7.47;;;6.88;;
77099;SDS011;66602;48.922;2.414;2023-03-01T01:18:31;7.47;;;6.47;;
77099;SDS011;66602;48.922;2.414;2023-03-01T01:20:56;7.82;;;5.97;;
77099;SDS011;66602;48.922;2.414;2023-03-01T01:23:22;6.80;;;6.20;;
77099;SDS011;66602;48.922;2.414;2023-03-01T01:25:47;9.27;;;6.80;;
77099;SDS011;66602;48.922;2.414;2023-03-01T01:28:13;7.30;;;6.50;;
77099;SDS011;66602;48.922;2.414;2023-03-01T01:30:38;6.82;;;6.32;;
77099;SDS011;66602;48.922;2.414;2023-03-01T01:33:04;7.93;;;7.20;;
77099;SDS011;66602;48.922;2.414;2023-03-01T01:35:29;10.38;;;6.60;;
77099;SDS011;66602;48.922;2.414;2023-03-01T01:37:55;7.15;;;6.55;;
77099;SDS011;66602;48.922;2.414;2023-03-01T01:40:20;7.45;;;6.50;;
77099;SDS011;66602;48.922;2.414;2023-03-01T01:42:46;7.03;;;6.63;;
77099;SDS011;66602;48.922;2.414;2023-03-01T01:45:32;7.43;;;6.68;;
77099;SDS011;66602;48.922;2.414;2023-03-01T01:48:02;7.43;;;6.60;;
77099;SDS011;66602;48.922;2.414;2023-03-01T01:50:33;7.05;;;6.53;;
77099;SDS011;66602;48.922;2.414;2023-03-01T01:53:05;7.57;;;6.88;;
77099;SDS011;66602;48.922;2.414;2023-03-01T01:55:35;8.35;;;7.03;;
77099;SDS011;66602;48.922;2.414;2023-03-01T01:58:02;8.32;;;7.72;;
77099;SDS011;66602;48.922;2.414;2023-03-01T02:00:31;8.18;;;7.15;;
77099;SDS011;66602;48.922;2.414;2023-03-01T02:03:00;10.50;;;7.28;;
77099;SDS011;66602;48.922;2.414;2023-03-01T02:08:25;7.35;;;6.68;;
77099;SDS011;66602;48.922;2.414;2023-03-01T02:10:55;7.07;;;6.57;;
77099;SDS011;66602;48.922;2.414;2023-03-01T02:13:22;7.95;;;7.10;;
77099;SDS011;66602;48.922;2.414;2023-03-01T02:15:48;7.47;;;6.80;;
77099;SDS011;66602;48.922;2.414;2023-03-01T02:18:15;8.50;;;7.28;;
77099;SDS011;66602;48.922;2.414;2023-03-01T02:23:30;7.70;;;7.00;;
77099;SDS011;66602;48.922;2.414;2023-03-01T02:26:05;6.30;;;5.80;;
77099;SDS011;66602;48.922;2.414;2023-03-01T02:28:38;7.45;;;6.95;;
77099;SDS011;66602;48.922;2.414;2023-03-01T02:31:06;10.07;;;6.68;;
77099;SDS011;66602;48.922;2.414;2023-03-01T02:33:51;8.27;;;7.57;;
77099;SDS011;66602;48.922;2.414;2023-03-01T02:36:20;8.20;;;7.55;;
77099;SDS011;66602;48.922;2.414;2023-03-01T02:38:57;9.13;;;6.90;;
77099;SDS011;66602;48.922;2.414;2023-03-01T02:41:24;8.70;;;7.72;;
77099;SDS011;66602;48.922;2.414;2023-03-01T02:43:53;7.40;;;6.70;;
77099;SDS011;66602;48.922;2.414;2023-03-01T02:46:20;8.05;;;7.30;;
77099;SDS011;66602;48.922;2.414;2023-03-01T02:48:49;7.75;;;7.05;;
77099;SDS011;66602;48.922;2.414;2023-03-01T02:51:28;8.20;;;7.50;;
77099;SDS011;66602;48.922;2.414;2023-03-01T02:59:09;6.95;;;6.35;;
77099;SDS011;66602;48.922;2.414;2023-03-01T03:01:37;11.43;;;7.28;;
77099;SDS011;66602;48.922;2.414;2023-03-01T03:04:03;8.60;;;7.90;;
77099;SDS011;66602;48.922;2.414;2023-03-01T03:06:32;8.82;;;8.00;;
77099;SDS011;66602;48.922;2.414;2023-03-01T03:08:58;9.00;;;7.95;;
77099;SDS011;66602;48.922;2.414;2023-03-01T03:11:24;7.78;;;7.22;;
77099;SDS011;66602;48.922;2.414;2023-03-01T03:13:50;8.10;;;7.43;;
77099;SDS011;66602;48.922;2.414;2023-03-01T03:16:17;8.60;;;7.18;;
77099;SDS011;66602;48.922;2.414;2023-03-01T03:18:43;7.10;;;6.57;;
77099;SDS011;66602;48.922;2.414;2023-03-01T03:21:09;8.15;;;7.55;;
77099;SDS011;66602;48.922;2.414;2023-03-01T03:23:37;9.18;;;7.72;;
77099;SDS011;66602;48.922;2.414;2023-03-01T03:26:03;8.45;;;7.63;;
77099;SDS011;66602;48.922;2.414;2023-03-01T03:28:30;9.45;;;8.48;;
77099;SDS011;66602;48.922;2.414;2023-03-01T03:30:56;8.57;;;7.78;;
77099;SDS011;66602;48.922;2.414;2023-03-01T03:33:21;10.05;;;7.88;;
77099;SDS011;66602;48.922;2.414;2023-03-01T03:35:48;11.75;;;8.07;;
77099;SDS011;66602;48.922;2.414;2023-03-01T03:38:15;8.52;;;7.85;;
77099;SDS011;66602;48.922;2.414;2023-03-01T03:40:51;11.13;;;7.47;;
77099;SDS011;66602;48.922;2.414;2023-03-01T03:45:55;8.73;;;7.15;;
77099;SDS011;66602;48.922;2.414;2023-03-01T03:48:22;8.85;;;7.97;;
77099;SDS011;66602;48.922;2.414;2023-03-01T03:50:50;8.85;;;7.93;;
77099;SDS011;66602;48.922;2.414;2023-03-01T03:53:18;7.88;;;7.18;;
77099;SDS011;66602;48.922;2.414;2023-03-01T03:55:44;11.05;;;8.23;;
77099;SDS011;66602;48.922;2.414;2023-03-01T03:58:10;9.15;;;7.22;;
77099;SDS011;66602;48.922;2.414;2023-03-01T04:00:40;8.80;;;7.97;;
77099;SDS011;66602;48.922;2.414;2023-03-01T04:03:07;8.38;;;7.63;;
77099;SDS011;66602;48.922;2.414;2023-03-01T04:05:35;9.70;;;8.70;;
77099;SDS011;66602;48.922;2.414;2023-03-01T04:08:02;9.13;;;8.20;;
77099;SDS011;66602;48.922;2.414;2023-03-01T04:10:32;9.52;;;7.63;;
77099;SDS011;66602;48.922;2.414;2023-03-01T04:13:00;8.38;;;7.68;;
77099;SDS011;66602;48.922;2.414;2023-03-01T04:15:26;8.75;;;8.00;;
77099;SDS011;66602;48.922;2.414;2023-03-01T04:17:53;9.07;;;8.23;;
77099;SDS011;66602;48.922;2.414;2023-03-01T04:20:20;8.45;;;7.78;;
77099;SDS011;66602;48.922;2.414;2023-03-01T04:22:49;9.43;;;8.30;;
77099;SDS011;66602;48.922;2.414;2023-03-01T04:25:16;8.70;;;8.00;;
77099;SDS011;66602;48.922;2.414;2023-03-01T04:27:42;8.68;;;7.93;;
77099;SDS011;66602;48.922;2.414;2023-03-01T04:30:07;9.40;;;8.15;;
77099;SDS011;66602;48.922;2.414;2023-03-01T04:32:34;10.52;;;7.93;;
77099;SDS011;66602;48.922;2.414;2023-03-01T04:35:00;12.68;;;9.40;;
77099;SDS011;66602;48.922;2.414;2023-03-01T04:37:26;9.18;;;8.30;;
77099;SDS011;66602;48.922;2.414;2023-03-01T04:39:51;8.32;;;7.70;;
77099;SDS011;66602;48.922;2.414;2023-03-01T04:42:17;10.10;;;9.07;;
77099;SDS011;66602;48.922;2.414;2023-03-01T04:44:43;12.05;;;9.20;;
77099;SDS011;66602;48.922;2.414;2023-03-01T04:47:09;9.30;;;8.50;;
77099;SDS011;66602;48.922;2.414;2023-03-01T04:49:35;8.95;;;8.07;;
77099;SDS011;66602;48.922;2.414;2023-03-01T04:52:02;11.90;;;8.57;;
77099;SDS011;66602;48.922;2.414;2023-03-01T04:54:28;12.73;;;8.25;;
77099;SDS011;66602;48.922;2.414;2023-03-01T04:56:57;11.23;;;8.65;;
77099;SDS011;66602;48.922;2.414;2023-03-01T04:59:23;10.60;;;8.38;;
77099;SDS011;66602;48.922;2.414;2023-03-01T05:01:53;8.63;;;7.60;;
77099;SDS011;66602;48.922;2.414;2023-03-01T05:04:21;9.85;;;9.05;;
77099;SDS011;66602;48.922;2.414;2023-03-01T05:06:47;8.95;;;8.15;;
77099;SDS011;66602;48.922;2.414;2023-03-01T05:09:12;11.75;;;9.57;;
77099;SDS011;66602;48.922;2.414;2023-03-01T05:11:37;10.35;;;9.35;;
77099;SDS011;66602;48.922;2.414;2023-03-01T05:14:03;10.77;;;8.55;;
77099;SDS011;66602;48.922;2.414;2023-03-01T05:16:30;9.10;;;8.43;;
77099;SDS011;66602;48.922;2.414;2023-03-01T05:18:56;9.18;;;8.30;;
77099;SDS011;66602;48.922;2.414;2023-03-01T05:21:22;11.77;;;9.18;;
77099;SDS011;66602;48.922;2.414;2023-03-01T05:23:48;9.48;;;8.68;;
77099;SDS011;66602;48.922;2.414;2023-03-01T05:26:14;9.13;;;8.25;;
77099;SDS011;66602;48.922;2.414;2023-03-01T05:28:40;10.77;;;9.45;;
77099;SDS011;66602;48.922;2.414;2023-03-01T05:31:06;10.30;;;8.65;;
77099;SDS011;66602;48.922;2.414;2023-03-01T05:33:37;21.83;;;9.60;;
77099;SDS011;66602;48.922;2.414;2023-03-01T05:36:03;10.55;;;9.15;;
77099;SDS011;66602;48.922;2.414;2023-03-01T05:38:30;10.35;;;8.98;;
77099;SDS011;66602;48.922;2.414;2023-03-01T05:40:56;11.02;;;9.77;;
77099;SDS011;66602;48.922;2.414;2023-03-01T05:43:21;9.20;;;8.43;;
77099;SDS011;66602;48.922;2.414;2023-03-01T05:45:47;12.25;;;10.15;;
77099;SDS011;66602;48.922;2.414;2023-03-01T05:48:12;16.85;;;10.18;;
77099;SDS011;66602;48.922;2.414;2023-03-01T05:50:40;20.08;;;9.25;;
77099;SDS011;66602;48.922;2.414;2023-03-01T05:53:17;11.13;;;9.80;;
77099;SDS011;66602;48.922;2.414;2023-03-01T05:55:46;12.38;;;9.88;;
77099;SDS011;66602;48.922;2.414;2023-03-01T05:58:16;26.27;;;9.13;;
77099;SDS011;66602;48.922;2.414;2023-03-01T06:00:44;11.00;;;9.13;;
77099;SDS011;66602;48.922;2.414;2023-03-01T06:03:12;14.48;;;9.75;;
77099;SDS011;66602;48.922;2.414;2023-03-01T06:05:39;13.05;;;10.35;;
77099;SDS011;66602;48.922;2.414;2023-03-01T06:08:05;10.15;;;9.32;;
77099;SDS011;66602;48.922;2.414;2023-03-01T06:10:31;13.23;;;10.85;;
77099;SDS011;66602;48.922;2.414;2023-03-01T06:12:57;27.85;;;9.70;;
77099;SDS011;66602;48.922;2.414;2023-03-01T06:15:23;17.20;;;11.13;;
77099;SDS011;66602;48.922;2.414;2023-03-01T06:17:49;10.75;;;8.63;;
77099;SDS011;66602;48.922;2.414;2023-03-01T06:20:17;18.40;;;11.32;;
77099;SDS011;66602;48.922;2.414;2023-03-01T06:22:47;11.35;;;10.25;;
77099;SDS011;66602;48.922;2.414;2023-03-01T06:25:15;14.40;;;11.35;;
77099;SDS011;66602;48.922;2.414;2023-03-01T06:27:43;35.08;;;12.02;;
77099;SDS011;66602;48.922;2.414;2023-03-01T06:30:09;18.30;;;11.60;;
77099;SDS011;66602;48.922;2.414;2023-03-01T06:32:37;18.05;;;11.73;;
77099;SDS011;66602;48.922;2.414;2023-03-01T06:35:07;17.35;;;11.13;;
77099;SDS011;66602;48.922;2.414;2023-03-01T06:37:33;16.88;;;12.88;;
77099;SDS011;66602;48.922;2.414;2023-03-01T06:40:00;13.90;;;11.63;;
77099;SDS011;66602;48.922;2.414;2023-03-01T06:42:34;12.85;;;11.52;;
77099;SDS011;66602;48.922;2.414;2023-03-01T06:45:03;15.27;;;12.95;;
77099;SDS011;66602;48.922;2.414;2023-03-01T06:47:30;34.88;;;12.48;;
77099;SDS011;66602;48.922;2.414;2023-03-01T06:49:55;18.40;;;11.73;;
77099;SDS011;66602;48.922;2.414;2023-03-01T06:52:21;13.40;;;11.15;;
77099;SDS011;66602;48.922;2.414;2023-03-01T06:54:46;16.52;;;12.45;;
77099;SDS011;66602;48.922;2.414;2023-03-01T06:57:12;16.90;;;13.85;;
77099;SDS011;66602;48.922;2.414;2023-03-01T06:59:37;16.33;;;11.25;;
77099;SDS011;66602;48.922;2.414;2023-03-01T07:02:03;17.75;;;11.75;;
77099;SDS011;66602;48.922;2.414;2023-03-01T07:04:28;16.55;;;12.00;;
77099;SDS011;66602;48.922;2.414;2023-03-01T07:06:56;20.17;;;12.75;;
77099;SDS011;66602;48.922;2.414;2023-03-01T07:09:22;15.95;;;12.02;;
77099;SDS011;66602;48.922;2.414;2023-03-01T07:11:48;15.25;;;12.73;;
77099;SDS011;66602;48.922;2.414;2023-03-01T07:14:14;20.17;;;13.75;;
77099;SDS011;66602;48.922;2.414;2023-03-01T07:16:40;22.17;;;13.52;;
77099;SDS011;66602;48.922;2.414;2023-03-01T07:19:06;17.33;;;12.20;;
77099;SDS011;66602;48.922;2.414;2023-03-01T07:21:31;21.23;;;13.70;;
77099;SDS011;66602;48.922;2.414;2023-03-01T07:23:59;18.35;;;12.32;;
77099;SDS011;66602;48.922;2.414;2023-03-01T07:26:25;20.25;;;13.70;;
77099;SDS011;66602;48.922;2.414;2023-03-01T07:28:50;20.42;;;13.50;;
77099;SDS011;66602;48.922;2.414;2023-03-01T07:31:16;19.42;;;14.38;;
77099;SDS011;66602;48.922;2.414;2023-03-01T07:33:41;19.50;;;12.32;;
77099;SDS011;66602;48.922;2.414;2023-03-01T07:36:07;18.00;;;12.65;;
77099;SDS011;66602;48.922;2.414;2023-03-01T07:38:34;13.25;;;11.95;;
77099;SDS011;66602;48.922;2.414;2023-03-01T07:41:00;16.20;;;11.45;;
77099;SDS011;66602;48.922;2.414;2023-03-01T07:43:30;12.35;;;11.15;;
77099;SDS011;66602;48.922;2.414;2023-03-01T07:46:00;16.58;;;10.77;;
77099;SDS011;66602;48.922;2.414;2023-03-01T07:48:26;18.70;;;10.30;;
77099;SDS011;66602;48.922;2.414;2023-03-01T07:50:52;12.82;;;10.63;;
77099;SDS011;66602;48.922;2.414;2023-03-01T07:53:18;12.30;;;9.93;;
77099;SDS011;66602;48.922;2.414;2023-03-01T07:55:43;12.13;;;11.00;;
77099;SDS011;66602;48.922;2.414;2023-03-01T07:58:09;18.60;;;10.90;;
77099;SDS011;66602;48.922;2.414;2023-03-01T08:00:34;12.88;;;11.52;;
77099;SDS011;66602;48.922;2.414;2023-03-01T08:03:01;13.18;;;11.05;;
77099;SDS011;66602;48.922;2.414;2023-03-01T08:05:27;17.80;;;10.82;;
77099;SDS011;66602;48.922;2.414;2023-03-01T08:07:53;12.35;;;11.07;;
77099;SDS011;66602;48.922;2.414;2023-03-01T08:10:19;19.73;;;14.20;;
77099;SDS011;66602;48.922;2.414;2023-03-01T08:12:45;19.42;;;13.38;;
77099;SDS011;66602;48.922;2.414;2023-03-01T08:15:11;14.15;;;11.45;;
77099;SDS011;66602;48.922;2.414;2023-03-01T08:17:37;13.13;;;11.85;;
77099;SDS011;66602;48.922;2.414;2023-03-01T08:20:03;12.20;;;11.00;;
77099;SDS011;66602;48.922;2.414;2023-03-01T08:22:33;16.88;;;12.77;;
77099;SDS011;66602;48.922;2.414;2023-03-01T08:25:03;21.58;;;11.77;;
77099;SDS011;66602;48.922;2.414;2023-03-01T08:27:28;18.42;;;11.25;;
77099;SDS011;66602;48.922;2.414;2023-03-01T08:29:54;13.65;;;11.45;;
77099;SDS011;66602;48.922;2.414;2023-03-01T08:32:19;11.10;;;10.15;;
77099;SDS011;66602;48.922;2.414;2023-03-01T08:34:48;13.23;;;10.85;;
77099;SDS011;66602;48.922;2.414;2023-03-01T08:37:13;12.38;;;11.23;;
77099;SDS011;66602;48.922;2.414;2023-03-01T08:39:39;16.38;;;10.98;;
77099;SDS011;66602;48.922;2.414;2023-03-01T08:42:04;13.05;;;10.77;;
77099;SDS011;66602;48.922;2.414;2023-03-01T08:44:31;12.00;;;11.00;;
77099;SDS011;66602;48.922;2.414;2023-03-01T08:46:56;11.77;;;10.57;;
77099;SDS011;66602;48.922;2.414;2023-03-01T08:49:22;14.85;;;11.40;;
77099;SDS011;66602;48.922;2.414;2023-03-01T08:51:48;12.32;;;11.13;;
77099;SDS011;66602;48.922;2.414;2023-03-01T08:54:18;11.45;;;10.48;;
77099;SDS011;66602;48.922;2.414;2023-03-01T08:56:46;11.65;;;10.55;;
77099;SDS011;66602;48.922;2.414;2023-03-01T08:59:12;15.15;;;10.85;;
77099;SDS011;66602;48.922;2.414;2023-03-01T09:01:38;11.75;;;10.38;;
77099;SDS011;66602;48.922;2.414;2023-03-01T09:04:05;11.38;;;10.35;;
77099;SDS011;66602;48.922;2.414;2023-03-01T09:06:36;16.17;;;10.25;;
77099;SDS011;66602;48.922;2.414;2023-03-01T09:09:02;16.60;;;10.27;;
77099;SDS011;66602;48.922;2.414;2023-03-01T09:11:29;15.05;;;10.23;;
77099;SDS011;66602;48.922;2.414;2023-03-01T09:13:55;12.05;;;10.85;;
77099;SDS011;66602;48.922;2.414;2023-03-01T09:16:21;11.15;;;10.38;;
77099;SDS011;66602;48.922;2.414;2023-03-01T09:18:51;10.35;;;9.50;;
77099;SDS011;66602;48.922;2.414;2023-03-01T09:21:18;11.00;;;10.07;;
77099;SDS011;66602;48.922;2.414;2023-03-01T09:23:46;10.90;;;10.05;;
77099;SDS011;66602;48.922;2.414;2023-03-01T09:26:14;10.88;;;10.00;;
77099;SDS011;66602;48.922;2.414;2023-03-01T09:28:44;12.20;;;11.00;;
77099;SDS011;66602;48.922;2.414;2023-03-01T09:31:11;10.00;;;9.23;;
77099;SDS011;66602;48.922;2.414;2023-03-01T09:33:41;22.70;;;12.02;;
77099;SDS011;66602;48.922;2.414;2023-03-01T09:36:10;10.48;;;9.77;;
77099;SDS011;66602;48.922;2.414;2023-03-01T09:38:37;11.57;;;10.48;;
77099;SDS011;66602;48.922;2.414;2023-03-01T09:41:08;11.18;;;10.18;;
77099;SDS011;66602;48.922;2.414;2023-03-01T09:46:29;15.30;;;10.80;;
77099;SDS011;66602;48.922;2.414;2023-03-01T09:49:05;13.65;;;9.77;;
77099;SDS011;66602;48.922;2.414;2023-03-01T09:51:37;11.23;;;10.07;;
77099;SDS011;66602;48.922;2.414;2023-03-01T09:54:03;10.63;;;9.65;;
77099;SDS011;66602;48.922;2.414;2023-03-01T09:56:35;14.25;;;10.63;;
77099;SDS011;66602;48.922;2.414;2023-03-01T10:01:40;15.48;;;10.50;;
77099;SDS011;66602;48.922;2.414;2023-03-01T10:06:56;11.40;;;10.15;;
77099;SDS011;66602;48.922;2.414;2023-03-01T10:09:29;10.95;;;10.18;;
77099;SDS011;66602;48.922;2.414;2023-03-01T10:11:59;10.75;;;9.40;;
77099;SDS011;66602;48.922;2.414;2023-03-01T10:14:48;11.48;;;10.48;;
77099;SDS011;66602;48.922;2.414;2023-03-01T10:17:39;9.93;;;9.23;;
77099;SDS011;66602;48.922;2.414;2023-03-01T10:22:58;10.57;;;9.40;;
77099;SDS011;66602;48.922;2.414;2023-03-01T10:25:43;23.75;;;9.88;;
77099;SDS011;66602;48.922;2.414;2023-03-01T10:30:49;10.55;;;9.77;;
77099;SDS011;66602;48.922;2.414;2023-03-01T10:33:20;12.30;;;9.93;;
77099;SDS011;66602;48.922;2.414;2023-03-01T10:35:47;17.58;;;10.40;;
77099;SDS011;66602;48.922;2.414;2023-03-01T10:38:13;10.40;;;9.70;;
77099;SDS011;66602;48.922;2.414;2023-03-01T10:43:23;15.95;;;10.48;;
77099;SDS011;66602;48.922;2.414;2023-03-01T10:45:57;12.88;;;10.07;;
77099;SDS011;66602;48.922;2.414;2023-03-01T10:48:23;11.82;;;10.18;;
77099;SDS011;66602;48.922;2.414;2023-03-01T10:51:14;12.02;;;10.40;;
77099;SDS011;66602;48.922;2.414;2023-03-01T10:53:42;11.27;;;10.38;;
77099;SDS011;66602;48.922;2.414;2023-03-01T10:56:14;11.25;;;10.10;;
77099;SDS011;66602;48.922;2.414;2023-03-01T10:58:56;13.10;;;10.32;;
77099;SDS011;66602;48.922;2.414;2023-03-01T11:01:30;10.68;;;9.65;;
77099;SDS011;66602;48.922;2.414;2023-03-01T11:06:39;9.82;;;9.15;;
77099;SDS011;66602;48.922;2.414;2023-03-01T11:09:30;10.82;;;9.93;;
77099;SDS011;66602;48.922;2.414;2023-03-01T11:11:59;10.90;;;9.50;;
77099;SDS011;66602;48.922;2.414;2023-03-01T11:14:31;10.98;;;9.85;;
77099;SDS011;66602;48.922;2.414;2023-03-01T11:17:02;10.40;;;9.50;;
77099;SDS011;66602;48.922;2.414;2023-03-01T11:19:30;11.35;;;10.45;;
77099;SDS011;66602;48.922;2.414;2023-03-01T11:21:58;13.30;;;10.10;;
77099;SDS011;66602;48.922;2.414;2023-03-01T11:24:41;11.25;;;10.10;;
77099;SDS011;66602;48.922;2.414;2023-03-01T11:27:26;14.27;;;10.13;;
77099;SDS011;66602;48.922;2.414;2023-03-01T11:29:57;11.45;;;9.63;;
77099;SDS011;66602;48.922;2.414;2023-03-01T11:32:43;10.10;;;9.10;;
77099;SDS011;66602;48.922;2.414;2023-03-01T11:35:15;10.10;;;8.93;;
77099;SDS011;66602;48.922;2.414;2023-03-01T11:37:50;10.27;;;9.38;;
77099;SDS011;66602;48.922;2.414;2023-03-01T11:40:49;10.85;;;9.30;;
77099;SDS011;66602;48.922;2.414;2023-03-01T11:43:26;9.88;;;8.93;;
77099;SDS011;66602;48.922;2.414;2023-03-01T11:52:08;14.63;;;9.55;;
77099;SDS011;66602;48.922;2.414;2023-03-01T12:12:01;10.23;;;9.52;;
77099;SDS011;66602;48.922;2.414;2023-03-01T12:31:25;11.05;;;10.00;;
77099;SDS011;66602;48.922;2.414;2023-03-01T12:37:16;10.57;;;9.75;;
77099;SDS011;66602;48.922;2.414;2023-03-01T12:39:54;11.63;;;10.50;;
77099;SDS011;66602;48.922;2.414;2023-03-01T12:48:14;10.90;;;9.90;;
77099;SDS011;66602;48.922;2.414;2023-03-01T12:50:53;12.80;;;9.30;;
77099;SDS011;66602;48.922;2.414;2023-03-01T12:55:53;11.18;;;10.13;;
77099;SDS011;66602;48.922;2.414;2023-03-01T13:06:53;10.65;;;9.30;;
77099;SDS011;66602;48.922;2.414;2023-03-01T13:09:43;9.90;;;9.00;;
77099;SDS011;66602;48.922;2.414;2023-03-01T13:25:35;10.50;;;9.50;;
77099;SDS011;66602;48.922;2.414;2023-03-01T13:31:04;16.77;;;10.57;;
77099;SDS011;66602;48.922;2.414;2023-03-01T13:36:08;10.90;;;10.10;;
77099;SDS011;66602;48.922;2.414;2023-03-01T13:39:39;10.35;;;9.35;;
77099;SDS011;66602;48.922;2.414;2023-03-01T13:41:57;16.30;;;9.73;;
77099;SDS011;66602;48.922;2.414;2023-03-01T13:44:35;18.10;;;10.85;;
77099;SDS011;66602;48.922;2.414;2023-03-01T13:47:08;12.55;;;10.18;;
77099;SDS011;66602;48.922;2.414;2023-03-01T13:49:57;12.73;;;10.68;;
77099;SDS011;66602;48.922;2.414;2023-03-01T13:54:58;10.53;;;9.77;;
77099;SDS011;66602;48.922;2.414;2023-03-01T13:57:30;16.63;;;10.90;;
77099;SDS011;66602;48.922;2.414;2023-03-01T14:02:34;14.85;;;10.00;;
77099;SDS011;66602;48.922;2.414;2023-03-01T14:05:01;15.90;;;10.45;;
77099;SDS011;66602;48.922;2.414;2023-03-01T14:07:27;13.90;;;10.27;;
77099;SDS011;66602;48.922;2.414;2023-03-01T14:09:57;11.23;;;10.05;;
77099;SDS011;66602;48.922;2.414;2023-03-01T14:12:38;12.23;;;10.52;;
77099;SDS011;66602;48.922;2.414;2023-03-01T14:17:59;10.40;;;9.45;;
77099;SDS011;66602;48.922;2.414;2023-03-01T14:20:46;11.40;;;10.40;;
77099;SDS011;66602;48.922;2.414;2023-03-01T14:23:17;11.75;;;10.95;;
77099;SDS011;66602;48.922;2.414;2023-03-01T14:25:47;11.63;;;10.80;;
77099;SDS011;66602;48.922;2.414;2023-03-01T14:28:22;11.65;;;10.63;;
77099;SDS011;66602;48.922;2.414;2023-03-01T14:30:56;11.55;;;10.65;;
77099;SDS011;66602;48.922;2.414;2023-03-01T14:33:27;11.77;;;10.93;;
77099;SDS011;66602;48.922;2.414;2023-03-01T14:35:59;11.18;;;10.20;;
77099;SDS011;66602;48.922;2.414;2023-03-01T14:41:25;15.57;;;9.98;;
77099;SDS011;66602;48.922;2.414;2023-03-01T14:43:55;11.70;;;10.10;;
77099;SDS011;66602;48.922;2.414;2023-03-01T14:49:06;11.75;;;10.52;;
77099;SDS011;66602;48.922;2.414;2023-03-01T14:51:35;12.15;;;11.13;;
77099;SDS011;66602;48.922;2.414;2023-03-01T14:54:10;11.95;;;11.05;;
77099;SDS011;66602;48.922;2.414;2023-03-01T14:56:47;12.55;;;11.38;;
77099;SDS011;66602;48.922;2.414;2023-03-01T14:59:13;20.00;;;10.98;;
77099;SDS011;66602;48.922;2.414;2023-03-01T15:01:40;11.45;;;10.45;;
77099;SDS011;66602;48.922;2.414;2023-03-01T15:04:08;18.85;;;11.60;;
77099;SDS011;66602;48.922;2.414;2023-03-01T15:06:37;16.35;;;11.05;;
77099;SDS011;66602;48.922;2.414;2023-03-01T15:09:11;12.15;;;10.95;;
77099;SDS011;66602;48.922;2.414;2023-03-01T15:11:41;12.35;;;11.30;;
77099;SDS011;66602;48.922;2.414;2023-03-01T15:16:54;12.57;;;11.63;;
77099;SDS011;66602;48.922;2.414;2023-03-01T15:19:21;15.80;;;11.68;;
77099;SDS011;66602;48.922;2.414;2023-03-01T15:21:54;19.73;;;12.00;;
77099;SDS011;66602;48.922;2.414;2023-03-01T15:24:23;13.25;;;11.32;;
77099;SDS011;66602;48.922;2.414;2023-03-01T15:26:56;13.20;;;11.35;;
77099;SDS011;66602;48.922;2.414;2023-03-01T15:29:52;14.30;;;11.27;;
77099;SDS011;66602;48.922;2.414;2023-03-01T15:38:00;12.32;;;11.10;;
77099;SDS011;66602;48.922;2.414;2023-03-01T15:40:27;12.30;;;10.98;;
77099;SDS011;66602;48.922;2.414;2023-03-01T15:43:03;11.45;;;10.50;;
77099;SDS011;66602;48.922;2.414;2023-03-01T15:45:32;11.68;;;10.60;;
77099;SDS011;66602;48.922;2.414;2023-03-01T15:48:03;11.85;;;10.77;;
77099;SDS011;66602;48.922;2.414;2023-03-01T15:50:46;13.55;;;11.10;;
77099;SDS011;66602;48.922;2.414;2023-03-01T15:53:20;11.25;;;10.32;;
77099;SDS011;66602;48.922;2.414;2023-03-01T15:55:46;11.75;;;10.32;;
77099;SDS011;66602;48.922;2.414;2023-03-01T15:58:18;17.13;;;10.80;;
77099;SDS011;66602;48.922;2.414;2023-03-01T16:00:46;12.68;;;11.40;;
77099;SDS011;66602;48.922;2.414;2023-03-01T16:03:13;12.77;;;11.38;;
77099;SDS011;66602;48.922;2.414;2023-03-01T16:05:46;11.63;;;10.68;;
77099;SDS011;66602;48.922;2.414;2023-03-01T16:08:13;11.45;;;10.57;;
77099;SDS011;66602;48.922;2.414;2023-03-01T16:10:42;11.35;;;10.25;;
77099;SDS011;66602;48.922;2.414;2023-03-01T16:13:10;12.45;;;9.98;;
77099;SDS011;66602;48.922;2.414;2023-03-01T16:15:39;11.10;;;10.20;;
77099;SDS011;66602;48.922;2.414;2023-03-01T16:18:07;11.77;;;10.75;;
77099;SDS011;66602;48.922;2.414;2023-03-01T16:20:36;11.10;;;10.20;;
77099;SDS011;66602;48.922;2.414;2023-03-01T16:23:05;11.23;;;10.13;;
77099;SDS011;66602;48.922;2.414;2023-03-01T16:25:42;12.38;;;9.43;;
77099;SDS011;66602;48.922;2.414;2023-03-01T16:28:08;11.80;;;10.57;;
77099;SDS011;66602;48.922;2.414;2023-03-01T16:30:35;10.38;;;9.32;;
77099;SDS011;66602;48.922;2.414;2023-03-01T16:33:01;10.10;;;9.13;;
77099;SDS011;66602;48.922;2.414;2023-03-01T16:35:31;11.90;;;10.75;;
77099;SDS011;66602;48.922;2.414;2023-03-01T16:37:59;10.85;;;9.93;;
77099;SDS011;66602;48.922;2.414;2023-03-01T16:40:26;9.85;;;9.10;;
77099;SDS011;66602;48.922;2.414;2023-03-01T16:42:55;10.57;;;9.60;;
77099;SDS011;66602;48.922;2.414;2023-03-01T16:45:24;11.07;;;9.63;;
77099;SDS011;66602;48.922;2.414;2023-03-01T16:47:50;12.60;;;9.88;;
77099;SDS011;66602;48.922;2.414;2023-03-01T16:50:18;10.38;;;9.43;;
77099;SDS011;66602;48.922;2.414;2023-03-01T16:52:45;10.00;;;9.25;;
77099;SDS011;66602;48.922;2.414;2023-03-01T16:55:35;13.38;;;9.75;;
77099;SDS011;66602;48.922;2.414;2023-03-01T16:58:00;11.70;;;9.35;;
77099;SDS011;66602;48.922;2.414;2023-03-01T17:00:28;13.50;;;9.40;;